Nules, Spain
Current Conditions -  °F | °C
As of 1:00 AM on Tuesday 25 Nov 2014 (Local Time) from LEBT Reporting Station
Overcast Overcast  
Wind Chill: 57°   Ceiling: 3100
Heat Index: 57°   Visibility: 2.3mi
Dew Point: 57°   Wind: 0mph
Humidity: 100%   Direction: NA
Pressure: 30.03"   Gusts: NA
Location:  39.85°N, 0.16°W
Report Text: LEBT 250000Z AUTO 00000KT 3700 // OVC031/// 14/14 Q1017
Loading
Personal Weather Stations






























Interactive Weather Map New forecast layout! Learn more

10-Day Weather Forecast

Advertisements
Track Severe Weather on mobile